Time;durP1;ratioP1;P1;durP2;ratioP2;P2;SDS_P1;SDS_P2;PMS_P1;PMS_P2;Temp;Humidity;BMP_temperature;BMP_pressure;BME280_temperature;BME280_humidity;BME280_pressure;Samples;Min_cycle;Max_cycle;Signal;HPM_P1;HPM_P2
2021/12/15 00:00:57;;;;;;;60.25;28.83;;;8.30;99.90;;;9.10;100.00;101865.25;5037985;28;20060;-81
2021/12/15 00:03:26;;;;;;;54.70;26.90;;;8.30;99.90;;;9.11;100.00;101858.53;5066817;22;20053;-79
2021/12/15 00:05:55;;;;;;;50.55;25.23;;;8.40;99.90;;;9.12;100.00;101854.63;5035452;28;20026;-81
2021/12/15 00:08:22;;;;;;;53.75;27.05;;;8.40;99.90;;;9.05;100.00;101857.84;5034803;28;20049;-78
2021/12/15 00:10:54;;;;;;;55.47;25.30;;;8.40;99.90;;;9.08;100.00;101854.44;5034085;28;20084;-78
2021/12/15 00:13:23;;;;;;;62.42;29.50;;;8.40;99.90;;;9.06;100.00;101862.28;5033262;28;20037;-81
2021/12/15 00:15:49;;;;;;;55.17;28.25;;;8.30;99.90;;;9.10;100.00;101856.88;5035013;28;20454;-78
2021/12/15 00:18:16;;;;;;;59.40;28.65;;;8.30;99.90;;;9.14;100.00;101866.25;5034676;28;20350;-81
2021/12/15 00:20:47;;;;;;;51.50;27.48;;;8.40;99.90;;;9.16;100.00;101856.44;5037016;28;20116;-78
2021/12/15 00:23:14;;;;;;;53.75;26.27;;;8.40;99.90;;;9.15;100.00;101862.34;5034459;28;20108;-77
2021/12/15 00:25:43;;;;;;;48.13;25.75;;;8.40;99.90;;;9.18;100.00;101867.28;5016570;28;20025;-78
2021/12/15 00:28:11;;;;;;;53.92;26.10;;;8.40;99.90;;;9.14;100.00;101869.06;5035442;28;20026;-79
2021/12/15 00:30:38;;;;;;;57.78;27.58;;;8.40;99.90;;;9.07;100.00;101869.50;5018135;28;20387;-79
2021/12/15 00:33:12;;;;;;;51.65;26.48;;;8.40;99.90;;;9.12;100.00;101865.78;5034612;28;20561;-79
2021/12/15 00:35:38;;;;;;;52.88;26.30;;;8.30;99.90;;;9.04;100.00;101863.75;5035389;28;20529;-79
2021/12/15 00:38:07;;;;;;;54.38;26.27;;;8.30;99.90;;;9.05;100.00;101862.59;5016903;28;20136;-80
2021/12/15 00:40:36;;;;;;;51.00;24.92;;;8.30;99.90;;;9.09;100.00;101863.59;5034621;28;20109;-80
2021/12/15 00:43:06;;;;;;;51.83;25.65;;;8.30;99.90;;;9.16;100.00;101866.75;5035374;28;20025;-77
2021/12/15 00:45:38;;;;;;;47.20;24.60;;;8.40;99.90;;;9.08;100.00;101859.19;5035408;28;20384;-79
2021/12/15 00:48:05;;;;;;;46.60;24.70;;;8.30;99.90;;;9.10;100.00;101865.25;5016685;28;20101;-79
2021/12/15 00:50:36;;;;;;;42.72;23.13;;;8.40;99.90;;;9.08;100.00;101862.78;5016191;28;20021;-80
2021/12/15 00:53:07;;;;;;;48.35;24.83;;;8.30;99.90;;;9.08;100.00;101861.97;5033617;28;20029;-80
2021/12/15 00:55:35;;;;;;;45.67;22.65;;;8.30;99.90;;;9.08;100.00;101860.00;5033742;28;20022;-79
2021/12/15 00:58:06;;;;;;;43.95;23.67;;;8.30;99.90;;;9.09;100.00;101867.22;5029857;28;20476;-80
2021/12/15 01:00:48;;;;;;;44.83;22.58;;;8.30;99.90;;;9.09;100.00;101864.41;5027687;28;20049;-81
2021/12/15 01:03:15;;;;;;;44.45;22.20;;;8.30;99.90;;;9.10;100.00;101860.50;5040414;28;20501;-80
2021/12/15 01:05:51;;;;;;;40.40;21.00;;;8.30;99.90;;;9.11;100.00;101858.53;5021515;28;20082;-80
2021/12/15 01:08:28;;;;;;;37.58;19.63;;;8.30;99.90;;;9.11;100.00;101861.31;5021359;28;20025;-78
2021/12/15 01:11:17;;;;;;;37.70;20.65;;;8.30;99.90;;;9.13;100.00;101864.59;5021405;28;20048;-80
2021/12/15 01:19:54;;;;;;;32.58;18.77;;;8.40;99.90;;;9.21;100.00;101863.84;5038882;28;20052;-80
2021/12/15 01:22:45;;;;;;;31.73;16.88;;;8.40;99.90;;;9.17;100.00;101871.19;5038163;28;20029;-80
2021/12/15 01:25:43;;;;;;;27.23;16.15;;;8.40;99.90;;;9.16;100.00;101872.31;5038901;28;20029;-80
2021/12/15 01:28:11;;;;;;;31.83;17.60;;;8.40;99.90;;;9.08;100.00;101864.75;5037499;28;20029;-79
2021/12/15 01:30:46;;;;;;;30.52;16.75;;;8.40;99.90;;;9.16;100.00;101863.97;5038330;28;20404;-80
2021/12/15 01:33:13;;;;;;;29.98;16.17;;;8.40;99.90;;;9.15;100.00;101865.13;5037606;28;20025;-79
2021/12/15 01:35:46;;;;;;;30.63;16.42;;;8.40;99.90;;;9.18;100.00;101854.16;5038015;28;20036;-80
2021/12/15 01:38:15;;;;;;;32.25;16.85;;;8.40;99.90;;;9.11;100.00;101861.31;5020128;28;20068;-78
2021/12/15 01:40:44;;;;;;;27.90;16.63;;;8.40;99.90;;;9.18;100.00;101858.91;5019498;28;20033;-79
2021/12/15 01:49:30;;;;;;;29.77;15.27;;;8.50;99.90;;;9.19;100.00;101861.38;5037099;28;20048;-78
2021/12/15 01:52:08;;;;;;;27.52;15.70;;;8.50;99.90;;;9.26;100.00;101860.91;5019481;28;20036;-78
2021/12/15 01:54:38;;;;;;;23.40;13.88;;;8.50;99.90;;;9.33;100.00;101862.09;5036165;28;20404;-79
2021/12/15 01:57:06;;;;;;;29.35;14.45;;;8.60;99.90;;;9.35;100.00;101862.59;5036725;28;20048;-80
2021/12/15 01:59:33;;;;;;;25.83;14.23;;;8.60;99.90;;;9.35;100.00;101857.03;5036062;28;20064;-78
2021/12/15 02:02:00;;;;;;;25.70;14.13;;;8.60;99.90;;;9.35;100.00;101857.03;5036014;28;20034;-80
2021/12/15 02:04:26;;;;;;;26.08;14.20;;;8.60;99.90;;;9.34;100.00;101854.56;5035776;28;20037;-79
2021/12/15 02:06:54;;;;;;;24.67;14.35;;;8.60;99.90;;;9.38;100.00;101861.13;5036268;28;20377;-80
2021/12/15 02:09:45;;;;;;;18.98;12.80;;;8.60;99.90;;;9.36;100.00;101857.84;5017805;28;20100;-79
2021/12/15 02:12:12;;;;;;;23.38;12.65;;;8.60;99.90;;;9.38;100.00;101866.72;5035105;28;20511;-76
2021/12/15 02:14:38;;;;;;;23.88;12.82;;;8.60;99.90;;;9.37;100.00;101863.13;5035765;28;20033;-77
2021/12/15 02:17:04;;;;;;;29.27;14.13;;;8.60;99.90;;;9.37;100.00;101871.50;5017812;28;20072;-78
2021/12/15 02:19:31;;;;;;;24.27;13.45;;;8.60;99.90;;;9.37;100.00;101863.13;5036270;28;20042;-80
2021/12/15 02:21:59;;;;;;;24.98;14.05;;;8.60;99.90;;;9.36;100.00;101864.25;5036050;28;20060;-77
2021/12/15 02:24:27;;;;;;;24.17;13.50;;;8.60;99.90;;;9.42;100.00;101870.50;5035287;28;20030;-78
2021/12/15 02:26:58;;;;;;;24.65;13.02;;;8.60;99.90;;;9.44;100.00;101873.78;5018219;28;20025;-79
2021/12/15 02:29:29;;;;;;;25.70;14.88;;;8.60;99.90;;;9.41;100.00;101866.88;5036129;28;20066;-80
2021/12/15 02:32:05;;;;;;;21.67;13.35;;;8.60;99.90;;;9.41;100.00;101861.31;5017879;28;20033;-77
2021/12/15 02:37:20;;;;;;;27.45;13.93;;;8.70;99.90;;;9.34;100.00;101871.31;5035363;28;20514;-79
2021/12/15 02:40:09;;;;;;;27.20;14.07;;;8.60;99.90;;;9.28;100.00;101867.81;5017646;28;20490;-80
2021/12/15 02:42:45;;;;;;;21.85;13.23;;;8.50;99.90;;;9.31;100.00;101864.38;5017511;28;20039;-80
2021/12/15 02:45:18;;;;;;;;;;;8.50;99.90;;;9.37;100.00;101863.13;5018662;28;20053;-77
2021/12/15 02:47:45;;;;;;;21.35;13.15;;;8.60;99.90;;;9.37;100.00;101871.50;5036331;28;20012;-79
2021/12/15 02:50:19;;;;;;;22.27;13.43;;;8.60;99.90;;;9.41;100.00;101871.63;5018847;28;20116;-80
2021/12/15 02:52:50;;;;;;;26.80;14.55;;;8.60;99.90;;;9.39;100.00;101865.56;5035498;28;20045;-80
2021/12/15 02:55:18;;;;;;;23.60;13.70;;;8.60;99.90;;;9.45;100.00;101861.50;5035415;28;20023;-79
2021/12/15 02:57:48;;;;;;;24.08;13.75;;;8.70;99.90;;;9.38;100.00;101856.38;5016949;28;20526;-78
2021/12/15 03:00:21;;;;;;;22.38;13.10;;;8.60;99.90;;;9.38;100.00;101858.34;5034980;28;20040;-80
2021/12/15 03:05:51;;;;;;;25.65;15.35;;;8.60;99.90;;;9.40;100.00;101859.69;5035148;28;20029;-79
2021/12/15 03:08:22;;;;;;;27.20;14.68;;;8.60;99.90;;;9.37;100.00;101857.53;5035031;28;20057;-79
2021/12/15 03:16:30;;;;;;;30.42;16.05;;;8.60;99.90;;;9.37;100.00;101840.81;5047502;28;20064;-78
2021/12/15 03:19:00;;;;;;;25.35;15.38;;;8.60;99.90;;;9.36;100.00;101839.16;5039325;28;20037;-79
2021/12/15 03:21:27;;;;;;;26.10;14.88;;;8.60;99.90;;;9.39;100.00;101846.06;5042339;28;20029;-82
2021/12/15 03:24:12;;;;;;;25.98;14.70;;;8.60;99.90;;;9.40;100.00;101836.56;5038801;28;20021;-79
2021/12/15 03:26:51;;;;;;;26.27;13.43;;;8.60;99.90;;;9.37;100.00;101840.00;5037705;28;20499;-81
2021/12/15 03:37:54;;;;;;;27.02;15.93;;;8.60;99.90;;;9.41;100.00;101839.00;5035390;28;20499;-80
2021/12/15 03:40:39;;;;;;;25.90;14.27;;;8.60;99.90;;;9.40;100.00;101848.53;5035752;28;20033;-77
2021/12/15 03:43:15;;;;;;;26.33;14.80;;;8.70;99.90;;;9.40;100.00;101842.13;5034944;28;20037;-80
2021/12/15 03:45:53;;;;;;;22.85;13.35;;;8.60;99.90;;;9.37;100.00;101845.56;5034383;28;20544;-78
2021/12/15 03:48:30;;;;;;;26.20;14.65;;;8.70;99.90;;;9.37;100.00;101860.34;5034437;28;20033;-78
2021/12/15 03:51:00;;;;;;;28.75;14.93;;;8.60;99.90;;;9.30;100.00;101853.56;5017415;28;20033;-80
2021/12/15 03:53:30;;;;;;;28.85;16.17;;;8.60;99.90;;;9.35;100.00;101856.19;5016467;28;20079;-78
2021/12/15 03:55:59;;;;;;;30.70;16.17;;;8.60;99.90;;;9.36;100.00;101857.84;5017353;28;20030;-81
2021/12/15 03:58:26;;;;;;;25.13;13.85;;;8.60;99.90;;;9.39;100.00;101857.22;5035727;28;20030;-78
2021/12/15 04:01:19;;;;;;;27.00;15.43;;;8.60;99.90;;;9.38;100.00;101855.56;5035127;28;20041;-79
2021/12/15 04:03:54;;;;;;;26.98;15.80;;;8.60;99.90;;;9.41;100.00;101861.31;5035026;28;20029;-80
2021/12/15 04:06:35;;;;;;;29.67;15.95;;;8.60;99.90;;;9.39;100.00;101869.19;5018238;28;20045;-80
2021/12/15 04:09:06;;;;;;;28.42;16.20;;;8.60;99.90;;;9.37;100.00;101868.69;5017952;28;20511;-80
2021/12/15 04:11:37;;;;;;;29.95;16.58;;;8.70;99.90;;;9.42;100.00;101867.72;5036913;28;20099;-79
2021/12/15 04:14:19;;;;;;;27.92;15.85;;;8.60;99.90;;;9.43;100.00;101873.00;5035997;28;20038;-80
2021/12/15 04:16:59;;;;;;;26.77;15.30;;;8.70;99.90;;;9.43;100.00;101869.38;5018490;28;20036;-80
2021/12/15 04:19:26;;;;;;;24.17;14.32;;;8.70;99.90;;;9.41;100.00;101875.25;5036203;28;20085;-81
2021/12/15 04:21:52;;;;;;;26.88;15.23;;;8.70;99.90;;;9.46;100.00;101869.56;5036019;28;20031;-80
2021/12/15 04:24:19;;;;;;;29.05;15.10;;;8.70;99.90;;;9.42;100.00;101874.13;5020044;28;20022;-83
2021/12/15 04:26:49;;;;;;;26.33;14.68;;;8.70;99.90;;;9.46;100.00;101869.56;5020968;28;20025;-82
2021/12/15 04:29:15;;;;;;;27.80;15.27;;;8.70;99.90;;;9.45;100.00;101876.28;5039787;28;20128;-82
2021/12/15 04:32:04;;;;;;;25.63;15.35;;;8.70;99.90;;;9.40;100.00;101873.63;5026803;28;20388;-82
2021/12/15 04:34:31;;;;;;;21.27;13.70;;;8.70;99.90;;;9.45;100.00;101879.06;5029319;28;20044;-82
2021/12/15 04:37:04;;;;;;;31.63;15.75;;;8.70;99.90;;;9.35;100.00;101872.94;5043019;28;20062;-79
2021/12/15 04:39:30;;;;;;;21.45;14.40;;;8.60;99.90;;;9.38;100.00;101881.47;5039267;28;20033;-78
2021/12/15 04:42:01;;;;;;;23.95;15.05;;;8.60;99.90;;;9.39;100.00;101893.47;5024061;28;20195;-81
2021/12/15 04:44:32;;;;;;;23.33;14.75;;;8.60;99.90;;;9.40;100.00;101895.94;5052292;28;20039;-80
2021/12/15 04:47:10;;;;;;;26.58;15.05;;;8.60;99.90;;;9.40;100.00;101897.91;5042461;28;20029;-81
2021/12/15 04:49:48;;;;;;;25.48;14.98;;;8.60;99.90;;;9.42;100.00;101895.59;5041684;28;20026;-81
2021/12/15 04:52:19;;;;;;;24.45;13.75;;;8.60;99.90;;;9.41;100.00;101900.34;5039886;28;20046;-80
2021/12/15 04:54:46;;;;;;;25.42;15.45;;;8.60;99.90;;;9.44;100.00;101891.34;5022413;28;20125;-82
2021/12/15 04:57:17;;;;;;;25.85;16.05;;;8.70;99.90;;;9.34;100.00;101897.19;5040280;28;20044;-80
2021/12/15 04:59:48;;;;;;;28.35;15.25;;;8.60;99.90;;;9.36;100.00;101896.88;5038410;28;20052;-80
2021/12/15 05:02:17;;;;;;;23.38;14.40;;;8.60;99.90;;;9.35;100.00;101898.03;5038243;28;20462;-80
2021/12/15 05:04:47;;;;;;;26.40;15.07;;;8.60;99.90;;;9.29;100.00;101899.31;5020797;28;20025;-80
2021/12/15 05:07:14;;;;;;;22.80;14.38;;;8.60;99.90;;;9.34;100.00;101894.41;5020625;28;20029;-77
2021/12/15 05:09:43;;;;;;;23.50;13.93;;;8.60;99.90;;;9.32;100.00;101890.28;5038214;28;20484;-79
2021/12/15 05:12:17;;;;;;;23.92;15.23;;;8.60;99.90;;;9.38;100.00;101901.00;5020567;28;20037;-79
2021/12/15 05:14:43;;;;;;;22.80;13.60;;;8.60;99.90;;;9.39;100.00;101904.63;5037659;28;20040;-79
2021/12/15 05:17:10;;;;;;;21.23;13.45;;;8.60;99.90;;;9.36;100.00;101894.94;5037853;28;20041;-81
2021/12/15 05:19:36;;;;;;;24.42;14.95;;;8.60;99.90;;;9.31;100.00;101894.25;5037546;28;20032;-79
2021/12/15 05:22:04;;;;;;;23.92;13.95;;;8.60;99.90;;;9.36;100.00;101900.50;5016700;28;20049;-82
2021/12/15 05:24:34;;;;;;;21.70;13.13;;;8.60;99.90;;;9.35;100.00;101909.19;5017037;28;20440;-80
2021/12/15 05:27:09;;;;;;;22.50;13.93;;;8.60;99.90;;;9.36;100.00;101903.28;5018691;28;20018;-80
2021/12/15 05:29:40;;;;;;;25.17;13.52;;;8.60;99.90;;;9.35;100.00;101906.38;5018729;28;20026;-81
2021/12/15 05:32:10;;;;;;;21.48;13.45;;;8.60;99.90;;;9.32;100.00;101913.44;5017551;28;20045;-79
2021/12/15 05:34:39;;;;;;;20.65;13.02;;;8.60;99.90;;;9.34;100.00;101913.94;5018179;28;20104;-80
2021/12/15 05:37:07;;;;;;;21.42;13.60;;;8.60;99.90;;;9.34;100.00;101918.69;5017368;28;20033;-79
2021/12/15 05:39:35;;;;;;;20.20;12.32;;;8.60;99.90;;;9.37;100.00;101918.06;5016816;28;20034;-77
2021/12/15 05:42:01;;;;;;;21.95;14.02;;;8.60;99.90;;;9.34;100.00;101924.28;5016966;28;20033;-80
2021/12/15 05:44:27;;;;;;;22.77;14.13;;;8.60;99.90;;;9.35;100.00;101921.16;5018117;28;20451;-78
2021/12/15 05:46:58;;;;;;;19.70;13.48;;;8.60;99.90;;;9.34;100.00;101924.28;5016799;28;20056;-80
2021/12/15 05:49:25;;;;;;;19.33;13.20;;;8.60;99.90;;;9.33;100.00;101922.63;5017492;28;20026;-80
2021/12/15 05:51:51;;;;;;;20.25;13.57;;;8.60;99.90;;;9.37;100.00;101923.63;5016537;28;20037;-80
2021/12/15 05:54:18;;;;;;;19.92;13.43;;;8.60;99.90;;;9.38;100.00;101922.47;5016987;28;20030;-81
2021/12/15 05:56:45;;;;;;;21.15;12.20;;;8.60;99.90;;;9.39;100.00;101926.91;5018247;28;20112;-78
2021/12/15 05:59:16;;;;;;;19.02;12.25;;;8.60;99.90;;;9.39;100.00;101924.97;5017907;28;20109;-79
2021/12/15 06:01:45;;;;;;;18.48;13.02;;;8.60;99.90;;;9.36;100.00;101922.81;5017089;28;20030;-80
2021/12/15 06:04:13;;;;;;;17.77;12.10;;;8.60;99.90;;;9.38;100.00;101930.84;5017261;28;20030;-81
2021/12/15 06:06:42;;;;;;;19.58;13.07;;;8.60;99.90;;;9.26;100.00;101928.66;5017419;28;20025;-78
2021/12/15 06:09:12;;;;;;;18.63;13.15;;;8.60;99.90;;;9.22;100.00;101929.59;5017530;28;20033;-81
2021/12/15 06:11:43;;;;;;;19.95;13.15;;;8.60;99.90;;;9.28;100.00;101928.34;5016137;28;20053;-79
2021/12/15 06:14:11;;;;;;;22.73;14.15;;;8.60;99.90;;;9.32;100.00;101929.34;5017169;28;20042;-78
2021/12/15 06:16:40;;;;;;;19.52;12.77;;;8.60;99.90;;;9.31;100.00;101936.88;5016319;28;20117;-80
2021/12/15 06:19:06;;;;;;;21.35;14.05;;;8.60;99.90;;;9.31;100.00;101931.28;5015695;28;20038;-78
2021/12/15 06:21:32;;;;;;;21.05;13.43;;;8.60;99.90;;;9.34;100.00;101939.03;5017755;28;20072;-80
2021/12/15 06:24:04;;;;;;;21.77;13.38;;;8.50;99.90;;;9.28;100.00;101931.13;5035781;28;20484;-81
2021/12/15 06:26:30;;;;;;;25.55;15.23;;;8.60;99.90;;;9.29;100.00;101936.38;5019262;28;20407;-79
2021/12/15 06:28:56;;;;;;;21.90;14.48;;;8.50;99.90;;;9.26;100.00;101936.19;5036462;28;20097;-80
2021/12/15 06:31:23;;;;;;;21.67;14.35;;;8.50;99.90;;;9.25;100.00;101951.25;5018186;28;20534;-77
2021/12/15 06:33:50;;;;;;;25.48;15.68;;;8.50;99.90;;;9.23;100.00;101950.75;5036448;28;20026;-79
2021/12/15 06:36:20;;;;;;;25.52;14.80;;;8.50;99.90;;;9.22;100.00;101949.09;5036503;28;20400;-78
2021/12/15 06:38:54;;;;;;;23.50;15.27;;;8.50;99.90;;;9.23;100.00;101950.75;5019007;28;20443;-79
2021/12/15 06:41:22;;;;;;;21.95;13.68;;;8.50;99.90;;;9.22;100.00;101946.31;5037191;28;20033;-77
2021/12/15 06:43:55;;;;;;;22.55;13.90;;;8.50;99.90;;;9.21;100.00;101955.84;5018496;28;20032;-78
2021/12/15 06:59:53;;;;;;;22.40;14.93;;;8.50;99.90;;;9.18;100.00;101957.31;5053928;28;20065;-82
2021/12/15 07:02:19;;;;;;;27.45;14.52;;;8.50;99.90;;;9.21;100.00;101962.25;5039619;28;20084;-78
2021/12/15 07:04:46;;;;;;;24.00;14.75;;;8.50;99.90;;;9.25;100.00;101959.63;5040295;28;20025;-80
2021/12/15 07:07:12;;;;;;;25.65;15.00;;;8.50;99.90;;;9.24;100.00;101958.00;5020917;28;20488;-78
2021/12/15 07:09:41;;;;;;;23.05;13.27;;;8.50;99.90;;;9.24;100.00;101963.56;5020671;28;20025;-80
2021/12/15 07:12:10;;;;;;;22.23;13.90;;;8.50;99.90;;;9.24;100.00;101958.81;5020258;28;20029;-80
2021/12/15 07:14:36;;;;;;;26.25;15.25;;;8.50;99.90;;;9.22;100.00;101965.84;5036508;28;20025;-81
2021/12/15 07:17:09;;;;;;;27.50;14.82;;;8.50;99.90;;;9.19;100.00;101969.25;5018905;28;20030;-80
2021/12/15 07:19:51;;;;;;;22.42;13.52;;;8.50;99.90;;;9.24;100.00;101960.78;5036136;28;20032;-81
2021/12/15 07:22:33;;;;;;;24.40;13.93;;;8.50;99.90;;;9.24;100.00;101974.72;5035925;28;20048;-82
2021/12/15 07:25:07;;;;;;;24.98;14.50;;;8.50;99.90;;;9.19;100.00;101972.88;5035934;28;20123;-81
2021/12/15 07:27:33;;;;;;;26.23;15.48;;;8.50;99.90;;;9.23;100.00;101968.31;5035189;28;20659;-79
2021/12/15 07:30:02;;;;;;;28.85;14.65;;;8.50;99.90;;;9.11;100.00;101965.28;5018665;28;20064;-78
2021/12/15 07:32:28;;;;;;;24.90;13.18;;;8.50;99.90;;;9.26;100.00;101964.91;5034710;28;20028;-79
2021/12/15 07:34:54;;;;;;;24.73;13.95;;;8.50;99.90;;;9.27;100.00;101969.34;5034719;28;20029;-80
2021/12/15 07:37:20;;;;;;;25.20;14.48;;;8.50;99.90;;;9.24;100.00;101972.75;5016685;28;20496;-79
2021/12/15 07:39:56;;;;;;;23.48;13.82;;;8.50;99.90;;;9.22;100.00;101972.25;5035211;28;20022;-80
2021/12/15 07:42:32;;;;;;;26.67;15.13;;;8.50;99.90;;;9.16;100.00;101969.91;5036922;28;20056;-79
2021/12/15 07:44:58;;;;;;;24.27;13.45;;;8.50;99.90;;;9.24;100.00;101977.50;5035028;28;20021;-79
2021/12/15 07:47:30;;;;;;;28.38;14.82;;;8.50;99.90;;;9.16;100.00;101978.25;5019188;28;20026;-81
2021/12/15 07:50:00;;;;;;;28.67;14.77;;;8.50;99.90;;;9.19;100.00;101981.25;5036738;28;20534;-82
2021/12/15 07:52:29;;;;;;;23.88;12.90;;;8.50;99.90;;;9.19;100.00;101985.97;5017916;28;20033;-77
2021/12/15 07:54:55;;;;;;;25.83;14.95;;;8.50;99.90;;;9.18;100.00;101982.41;5019045;28;20060;-80
2021/12/15 07:57:28;;;;;;;24.25;13.52;;;8.50;99.90;;;9.20;100.00;101982.06;5036544;28;20029;-81
2021/12/15 07:59:56;;;;;;;24.38;14.50;;;8.50;99.90;;;9.20;100.00;101974.53;5018173;28;20053;-81
2021/12/15 08:02:24;;;;;;;27.60;13.98;;;8.50;99.90;;;9.24;100.00;101975.56;5036802;28;20053;-78
2021/12/15 08:04:50;;;;;;;22.27;13.13;;;8.50;99.90;;;9.24;100.00;101983.09;5035153;28;20029;-79
2021/12/15 08:07:17;;;;;;;21.98;12.38;;;8.50;99.90;;;9.29;100.00;101980.16;5036528;28;20472;-79
2021/12/15 08:09:45;;;;;;;23.52;12.93;;;8.60;99.90;;;9.31;100.00;101984.28;5037509;28;20041;-76
2021/12/15 08:12:12;;;;;;;21.77;12.95;;;8.50;99.90;;;9.29;100.00;101982.94;5019513;28;20040;-77
2021/12/15 08:14:39;;;;;;;19.40;12.70;;;8.60;99.90;;;9.36;100.00;101989.72;5018415;28;20033;-77
2021/12/15 08:17:11;;;;;;;21.95;12.32;;;8.60;99.90;;;9.37;100.00;101985.81;5036561;28;20240;-78
2021/12/15 08:19:37;;;;;;;20.40;11.85;;;8.60;99.90;;;9.42;100.00;101990.41;5036887;28;20093;-77
2021/12/15 08:22:04;;;;;;;20.38;11.38;;;8.60;99.90;;;9.40;100.00;101984.34;5036312;28;20068;-78
2021/12/15 08:24:30;;;;;;;19.50;11.00;;;8.60;99.90;;;9.36;100.00;101983.31;5018572;28;20041;-80
2021/12/15 08:26:59;;;;;;;17.90;10.85;;;8.60;99.90;;;9.38;100.00;101992.19;5036868;28;20029;-77
2021/12/15 08:29:25;;;;;;;18.23;11.27;;;8.60;99.90;;;9.37;100.00;101988.59;5036854;28;20092;-76
2021/12/15 08:31:54;;;;;;;17.52;10.60;;;8.60;99.90;;;9.31;100.00;101983.47;5019470;28;20118;-77
2021/12/15 08:34:23;;;;;;;17.48;10.52;;;8.60;99.90;;;9.34;100.00;101994.00;5024013;28;20033;-78
2021/12/15 08:36:52;;;;;;;18.20;10.48;;;8.60;99.90;;;9.30;100.00;102002.16;5039024;28;20064;-77
2021/12/15 08:39:19;;;;;;;20.10;11.05;;;8.60;99.90;;;9.40;100.00;101993.53;5019503;28;20116;-77
2021/12/15 08:41:46;;;;;;;16.27;10.15;;;8.70;99.90;;;9.43;100.00;102000.44;5037337;28;20056;-78
2021/12/15 08:44:12;;;;;;;17.80;10.98;;;8.70;99.90;;;9.41;100.00;101997.97;5036812;28;20026;-76
2021/12/15 08:46:47;;;;;;;17.33;10.45;;;8.70;99.90;;;9.44;100.00;102000.13;5036932;28;20026;-79
2021/12/15 08:49:20;;;;;;;16.73;9.93;;;8.70;99.90;;;9.49;100.00;101997.22;5018569;28;20030;-78
2021/12/15 08:51:47;;;;;;;15.55;10.30;;;8.80;99.90;;;9.46;100.00;102000.63;5018873;28;20121;-78
2021/12/15 08:54:20;;;;;;;20.30;11.07;;;8.70;99.90;;;9.48;100.00;102012.28;5035258;28;20061;-78
2021/12/15 08:56:47;;;;;;;16.63;10.02;;;8.80;99.90;;;9.53;100.00;102011.34;5035256;28;20776;-79
2021/12/15 08:59:15;;;;;;;18.63;10.15;;;8.80;99.90;;;9.47;100.00;102009.84;5035721;28;20519;-78
2021/12/15 09:01:45;;;;;;;18.52;10.73;;;8.80;99.90;;;9.55;100.00;102011.84;5036453;28;20412;-79
2021/12/15 09:04:15;;;;;;;17.65;10.25;;;8.80;99.90;;;9.59;100.00;102014.81;5035637;28;20037;-77
2021/12/15 09:06:44;;;;;;;23.20;12.13;;;8.80;99.90;;;9.52;100.00;102018.88;5035229;28;20037;-79
2021/12/15 09:09:15;;;;;;;17.23;10.70;;;8.80;99.90;;;9.58;100.00;102016.78;5018840;28;20075;-80
2021/12/15 09:11:43;;;;;;;19.55;10.57;;;8.80;99.90;;;9.61;100.00;102018.94;5035085;28;20037;-79
2021/12/15 09:14:13;;;;;;;19.98;10.82;;;8.90;99.90;;;9.66;100.00;102020.78;5040640;28;20056;-80
2021/12/15 09:16:50;;;;;;;19.17;11.15;;;8.80;99.90;;;9.65;100.00;102019.94;5048994;28;20017;-81
2021/12/15 09:19:17;;;;;;;20.13;11.70;;;8.90;99.90;;;9.74;100.00;102022.78;5048216;28;20404;-79
2021/12/15 09:21:51;;;;;;;16.17;10.15;;;8.90;99.90;;;9.69;100.00;102029.34;5040767;28;20088;-79
2021/12/15 09:24:20;;;;;;;22.20;12.88;;;8.90;99.90;;;9.68;100.00;102027.69;5039279;28;20017;-78
2021/12/15 09:26:47;;;;;;;20.27;12.10;;;8.90;99.90;;;9.78;100.00;102026.59;5021555;28;20026;-78
2021/12/15 09:29:13;;;;;;;18.83;12.10;;;9.00;99.90;;;9.79;100.00;102033.81;5021984;28;20101;-76
2021/12/15 09:31:40;;;;;;;21.40;12.00;;;9.00;99.90;;;9.76;100.00;102024.09;5039630;28;20025;-79
2021/12/15 09:34:11;;;;;;;20.38;13.38;;;9.00;99.90;;;9.86;100.00;102025.78;5021382;28;20032;-78
2021/12/15 09:36:38;;;;;;;21.13;13.15;;;9.00;99.90;;;9.85;100.00;102032.53;5039133;28;20401;-79
2021/12/15 09:39:14;;;;;;;23.33;14.23;;;9.00;99.90;;;9.77;100.00;102030.50;5022350;28;20033;-79
2021/12/15 09:41:41;;;;;;;23.30;13.50;;;9.00;99.90;;;9.80;100.00;102041.03;5039312;28;20396;-78
2021/12/15 09:44:17;;;;;;;22.98;13.82;;;9.00;99.90;;;9.84;100.00;102033.69;5021175;28;20025;-79
2021/12/15 09:47:13;;;;;;;25.15;13.48;;;9.10;99.90;;;9.82;100.00;102035.97;5021285;28;20037;-80
2021/12/15 10:06:31;;;;;;;30.05;18.02;;;9.10;99.90;;;9.87;100.00;102042.22;4938312;29;20028;-80
2021/12/15 10:20:22;;;;;;;27.73;18.30;;;9.20;99.90;;;9.99;100.00;102036.03;5013118;28;20037;-78
2021/12/15 10:22:57;;;;;;;28.70;17.98;;;9.20;99.90;;;9.99;100.00;102044.41;5036030;28;20129;-79
2021/12/15 10:25:47;;;;;;;31.35;17.70;;;9.20;99.90;;;9.97;100.00;102044.75;5035954;28;20017;-79
2021/12/15 10:28:23;;;;;;;29.27;18.65;;;9.20;99.90;;;10.03;100.00;102039.84;5018732;28;20026;-78
2021/12/15 10:31:05;;;;;;;;;;;9.20;99.90;;;9.99;100.00;102039.66;5019140;28;20040;-78
2021/12/15 10:33:57;;;;;;;27.38;16.83;;;9.20;99.90;;;10.05;100.00;102038.38;5035665;28;19917;-77
2021/12/15 10:36:49;;;;;;;29.58;17.73;;;9.20;99.90;;;10.09;100.00;102030.19;5027369;28;20405;-78
2021/12/15 10:39:15;;;;;;;29.27;18.77;;;9.30;99.90;;;10.06;100.00;102030.84;5056025;28;20037;-79
2021/12/15 10:41:44;;;;;;;24.17;16.15;;;9.30;99.90;;;10.11;100.00;102039.09;5042035;28;20044;-78
2021/12/15 10:44:26;;;;;;;28.38;16.77;;;9.30;99.90;;;10.21;100.00;102035.22;5038070;28;20017;-81
2021/12/15 10:47:21;;;;;;;25.65;16.42;;;9.30;99.90;;;10.12;100.00;102040.72;5037316;28;20391;-79
2021/12/15 10:49:51;;;;;;;27.48;16.88;;;9.30;99.90;;;10.04;100.00;102039.53;5017920;28;20459;-80
2021/12/15 10:52:17;;;;;;;26.60;16.60;;;9.30;99.90;;;9.99;100.00;102042.47;5018639;28;20431;-79
2021/12/15 10:54:51;;;;;;;29.15;17.02;;;9.30;99.90;;;10.02;100.00;102044.59;5019500;28;20029;-79
2021/12/15 10:57:28;;;;;;;28.58;16.63;;;9.30;99.90;;;10.12;100.00;102045.47;5037444;28;20035;-79
2021/12/15 10:59:56;;;;;;;25.67;16.42;;;9.30;99.90;;;10.11;100.00;102038.25;5037751;28;20080;-77
2021/12/15 11:02:32;;;;;;;26.77;17.73;;;9.30;99.90;;;10.04;100.00;102033.97;5036220;28;20030;-76
2021/12/15 11:05:16;;;;;;;29.30;16.95;;;9.30;99.90;;;10.15;100.00;102042.88;5036496;28;20041;-78
2021/12/15 11:07:57;;;;;;;24.42;15.73;;;9.30;99.90;;;10.14;100.00;102037.66;5035508;28;20056;-77
2021/12/15 11:10:38;;;;;;;25.58;17.63;;;9.40;99.90;;;10.10;100.00;102036.59;5035969;28;20030;-80
2021/12/15 11:13:09;;;;;;;29.20;17.27;;;9.40;99.90;;;10.11;100.00;102050.25;5036068;28;20037;-77
2021/12/15 11:15:50;;;;;;;28.20;18.27;;;9.30;99.90;;;10.07;100.00;102047.28;5036517;28;20033;-77
2021/12/15 11:18:35;;;;;;;26.90;17.60;;;9.30;99.90;;;10.10;100.00;102042.19;5036162;28;20029;-76
2021/12/15 11:21:08;;;;;;;28.75;17.45;;;9.40;99.90;;;10.10;100.00;102039.38;5017623;28;20025;-77
2021/12/15 11:23:41;;;;;;;28.48;17.65;;;9.30;99.90;;;10.12;100.00;102039.88;5035373;28;20047;-76
2021/12/15 11:26:13;;;;;;;28.45;18.45;;;9.30;99.90;;;10.11;100.00;102038.25;5018194;28;20025;-80
2021/12/15 11:28:51;;;;;;;30.83;18.13;;;9.30;99.90;;;10.10;100.00;102043.00;5018039;28;20025;-77
2021/12/15 11:31:31;;;;;;;28.55;18.45;;;9.40;99.90;;;10.09;100.00;102035.78;5018158;28;20056;-77
2021/12/15 11:34:07;;;;;;;29.70;17.58;;;9.30;99.90;;;10.05;100.00;102034.75;5018381;28;20030;-79
2021/12/15 11:36:44;;;;;;;;;;;9.30;99.90;;;9.98;100.00;102026.88;5035334;28;20029;-79